Terminal Aerodrome Forecast
Issued by NWS Greer, SC

Home | Current Version | Previous Version | Text Only | Print | Product List | Glossary On
Versions: 1 2 3 4 5 6 7 8 9 10 11 12 13 14 15 16 17 18 19 20 21 22 23 24 25 26 27 28 29 30 31 32 33 34 35 36 37 38 39 40 41 42 43 44
000
FTUS42 KGSP 271736
TAFCLT
TAF
KCLT 271736Z 2718/2818 20009KT P6SM SCT040 BKN110
     FM272100 21007KT P6SM VCTS BKN060CB
     FM280100 20006KT P6SM VCSH BKN060
     FM280600 19006KT P6SM VCSH BKN025
     FM280900 19008KT 5SM BR BKN007
     FM281400 22008KT P6SM BKN015=

USA.gov is the U.S. government's official web portal to all federal, state and local government web resources and services.